Terminal Aerodrome Forecast
Issued by NWS Greer, SC

Home | Current Version | Previous Version | Text Only | Print | Product List | Glossary On
Versions: 1 2 3 4 5 6 7 8 9 10 11 12 13 14 15 16 17 18 19 20 21
000
FTUS42 KGSP 221739
TAFCLT
TAF
KCLT 221739Z 2218/2318 04004KT P6SM FEW015 SCT030 OVC250
     FM221900 11004KT P6SM BKN035
     FM230000 07004KT P6SM OVC030
     FM230500 08003KT 4SM BR SCT003 OVC015
     FM231400 10003KT P6SM BKN015
     FM231700 13004KT P6SM BKN050=

USA.gov is the U.S. government's official web portal to all federal, state and local government web resources and services.